sensor_id;sensor_type;location;lat;lon;timestamp;temperature;humidity
20035;DHT22;10178;48.034;9.800;2024-02-21T00:00:47;4.00;99.90
20035;DHT22;10178;48.034;9.800;2024-02-21T00:03:13;4.70;99.90
20035;DHT22;10178;48.034;9.800;2024-02-21T00:05:39;5.60;99.90
20035;DHT22;10178;48.034;9.800;2024-02-21T00:08:05;6.10;99.90
20035;DHT22;10178;48.034;9.800;2024-02-21T00:10:30;6.50;99.90
20035;DHT22;10178;48.034;9.800;2024-02-21T00:13:14;6.80;99.90
20035;DHT22;10178;48.034;9.800;2024-02-21T00:15:40;7.00;99.90
20035;DHT22;10178;48.034;9.800;2024-02-21T00:18:06;6.10;99.90
20035;DHT22;10178;48.034;9.800;2024-02-21T00:20:31;5.90;99.90
20035;DHT22;10178;48.034;9.800;2024-02-21T00:23:00;5.80;99.90
20035;DHT22;10178;48.034;9.800;2024-02-21T00:25:27;5.20;99.90
20035;DHT22;10178;48.034;9.800;2024-02-21T00:27:53;4.60;99.90
20035;DHT22;10178;48.034;9.800;2024-02-21T00:30:19;4.60;99.90
20035;DHT22;10178;48.034;9.800;2024-02-21T00:32:44;4.30;99.90
20035;DHT22;10178;48.034;9.800;2024-02-21T00:35:10;4.20;99.90
20035;DHT22;10178;48.034;9.800;2024-02-21T00:37:36;4.00;99.90
20035;DHT22;10178;48.034;9.800;2024-02-21T00:40:01;4.10;99.90
20035;DHT22;10178;48.034;9.800;2024-02-21T00:42:27;3.90;99.90
20035;DHT22;10178;48.034;9.800;2024-02-21T00:44:52;4.30;99.90
20035;DHT22;10178;48.034;9.800;2024-02-21T00:47:18;4.90;99.90
20035;DHT22;10178;48.034;9.800;2024-02-21T00:49:43;5.70;99.90
20035;DHT22;10178;48.034;9.800;2024-02-21T00:52:09;5.80;99.90
20035;DHT22;10178;48.034;9.800;2024-02-21T00:54:35;5.50;99.90
20035;DHT22;10178;48.034;9.800;2024-02-21T00:57:00;5.60;99.90
20035;DHT22;10178;48.034;9.800;2024-02-21T00:59:26;6.10;99.90
20035;DHT22;10178;48.034;9.800;2024-02-21T01:01:51;6.50;99.90
20035;DHT22;10178;48.034;9.800;2024-02-21T01:04:17;6.70;99.90
20035;DHT22;10178;48.034;9.800;2024-02-21T01:06:43;6.90;99.90
20035;DHT22;10178;48.034;9.800;2024-02-21T01:09:10;7.00;99.90
20035;DHT22;10178;48.034;9.800;2024-02-21T01:11:36;7.10;99.90
20035;DHT22;10178;48.034;9.800;2024-02-21T01:14:02;7.20;99.90
20035;DHT22;10178;48.034;9.800;2024-02-21T01:16:27;7.20;99.90
20035;DHT22;10178;48.034;9.800;2024-02-21T01:18:53;7.20;99.90
20035;DHT22;10178;48.034;9.800;2024-02-21T01:21:19;7.30;99.90
20035;DHT22;10178;48.034;9.800;2024-02-21T01:23:44;7.30;99.90
20035;DHT22;10178;48.034;9.800;2024-02-21T01:26:10;7.30;99.90
20035;DHT22;10178;48.034;9.800;2024-02-21T01:28:38;6.60;99.90
20035;DHT22;10178;48.034;9.800;2024-02-21T01:31:04;6.40;99.90
20035;DHT22;10178;48.034;9.800;2024-02-21T01:33:29;6.40;99.90
20035;DHT22;10178;48.034;9.800;2024-02-21T01:36:01;6.60;99.90
20035;DHT22;10178;48.034;9.800;2024-02-21T01:38:34;6.90;99.90
20035;DHT22;10178;48.034;9.800;2024-02-21T01:41:02;6.90;99.90
20035;DHT22;10178;48.034;9.800;2024-02-21T01:43:28;7.00;99.90
20035;DHT22;10178;48.034;9.800;2024-02-21T01:45:55;6.80;99.90
20035;DHT22;10178;48.034;9.800;2024-02-21T01:48:24;6.60;99.90
20035;DHT22;10178;48.034;9.800;2024-02-21T01:50:51;6.50;99.90
20035;DHT22;10178;48.034;9.800;2024-02-21T01:53:28;6.40;99.90
20035;DHT22;10178;48.034;9.800;2024-02-21T01:55:55;6.30;99.90
20035;DHT22;10178;48.034;9.800;2024-02-21T01:58:21;6.50;99.90
20035;DHT22;10178;48.034;9.800;2024-02-21T02:00:48;6.70;99.90
20035;DHT22;10178;48.034;9.800;2024-02-21T02:03:14;6.80;99.90
20035;DHT22;10178;48.034;9.800;2024-02-21T02:05:47;6.50;99.90
20035;DHT22;10178;48.034;9.800;2024-02-21T02:08:17;5.30;99.90
20035;DHT22;10178;48.034;9.800;2024-02-21T02:10:44;4.70;99.90
20035;DHT22;10178;48.034;9.800;2024-02-21T02:13:10;4.40;99.90
20035;DHT22;10178;48.034;9.800;2024-02-21T02:15:39;4.50;99.90
20035;DHT22;10178;48.034;9.800;2024-02-21T02:18:05;5.20;99.90
20035;DHT22;10178;48.034;9.800;2024-02-21T02:20:31;5.80;99.90
20035;DHT22;10178;48.034;9.800;2024-02-21T02:22:58;6.20;99.90
20035;DHT22;10178;48.034;9.800;2024-02-21T02:25:25;6.40;99.90
20035;DHT22;10178;48.034;9.800;2024-02-21T02:27:51;6.60;99.90
20035;DHT22;10178;48.034;9.800;2024-02-21T02:30:17;6.50;99.90
20035;DHT22;10178;48.034;9.800;2024-02-21T02:32:45;5.70;99.90
20035;DHT22;10178;48.034;9.800;2024-02-21T02:35:11;5.80;99.90
20035;DHT22;10178;48.034;9.800;2024-02-21T02:37:37;6.30;99.90
20035;DHT22;10178;48.034;9.800;2024-02-21T02:40:07;6.40;99.90
20035;DHT22;10178;48.034;9.800;2024-02-21T02:42:33;6.60;99.90
20035;DHT22;10178;48.034;9.800;2024-02-21T02:44:59;6.80;99.90
20035;DHT22;10178;48.034;9.800;2024-02-21T02:47:25;6.90;99.90
20035;DHT22;10178;48.034;9.800;2024-02-21T02:49:50;6.90;99.90
20035;DHT22;10178;48.034;9.800;2024-02-21T02:52:19;6.70;99.90
20035;DHT22;10178;48.034;9.800;2024-02-21T02:54:45;6.60;99.90
20035;DHT22;10178;48.034;9.800;2024-02-21T02:57:11;6.00;99.90
20035;DHT22;10178;48.034;9.800;2024-02-21T02:59:36;5.90;99.90
20035;DHT22;10178;48.034;9.800;2024-02-21T03:02:02;5.70;99.90
20035;DHT22;10178;48.034;9.800;2024-02-21T03:04:27;5.90;99.90
20035;DHT22;10178;48.034;9.800;2024-02-21T03:06:53;6.10;99.90
20035;DHT22;10178;48.034;9.800;2024-02-21T03:09:19;6.30;99.90
20035;DHT22;10178;48.034;9.800;2024-02-21T03:11:44;6.50;99.90
20035;DHT22;10178;48.034;9.800;2024-02-21T03:14:10;6.70;99.90
20035;DHT22;10178;48.034;9.800;2024-02-21T03:16:36;6.80;99.90
20035;DHT22;10178;48.034;9.800;2024-02-21T03:19:01;7.00;99.90
20035;DHT22;10178;48.034;9.800;2024-02-21T03:21:27;6.90;99.90
20035;DHT22;10178;48.034;9.800;2024-02-21T03:23:53;7.00;99.90
20035;DHT22;10178;48.034;9.800;2024-02-21T03:26:18;7.00;99.90
20035;DHT22;10178;48.034;9.800;2024-02-21T03:28:44;7.00;99.90
20035;DHT22;10178;48.034;9.800;2024-02-21T03:31:13;7.00;99.90
20035;DHT22;10178;48.034;9.800;2024-02-21T03:33:42;7.00;99.90
20035;DHT22;10178;48.034;9.800;2024-02-21T03:36:15;7.00;99.90
20035;DHT22;10178;48.034;9.800;2024-02-21T03:38:41;6.90;99.90
20035;DHT22;10178;48.034;9.800;2024-02-21T03:41:06;6.90;99.90
20035;DHT22;10178;48.034;9.800;2024-02-21T03:43:32;6.90;99.90
20035;DHT22;10178;48.034;9.800;2024-02-21T03:45:58;6.80;99.90
20035;DHT22;10178;48.034;9.800;2024-02-21T03:48:23;6.90;99.90
20035;DHT22;10178;48.034;9.800;2024-02-21T03:50:49;6.90;99.90
20035;DHT22;10178;48.034;9.800;2024-02-21T03:53:14;6.90;99.90
20035;DHT22;10178;48.034;9.800;2024-02-21T03:55:40;6.90;99.90
20035;DHT22;10178;48.034;9.800;2024-02-21T03:58:06;7.00;99.90
20035;DHT22;10178;48.034;9.800;2024-02-21T04:00:31;6.90;99.90
20035;DHT22;10178;48.034;9.800;2024-02-21T04:02:57;7.00;99.90
20035;DHT22;10178;48.034;9.800;2024-02-21T04:05:22;7.00;99.90
20035;DHT22;10178;48.034;9.800;2024-02-21T04:07:48;7.00;99.90
20035;DHT22;10178;48.034;9.800;2024-02-21T04:10:14;6.90;99.90
20035;DHT22;10178;48.034;9.800;2024-02-21T04:12:39;6.90;99.90
20035;DHT22;10178;48.034;9.800;2024-02-21T04:15:05;6.30;99.90
20035;DHT22;10178;48.034;9.800;2024-02-21T04:17:31;5.50;99.90
20035;DHT22;10178;48.034;9.800;2024-02-21T04:20:03;4.80;99.90
20035;DHT22;10178;48.034;9.800;2024-02-21T04:22:38;4.80;99.90
20035;DHT22;10178;48.034;9.800;2024-02-21T04:25:03;5.40;99.90
20035;DHT22;10178;48.034;9.800;2024-02-21T04:27:29;5.80;99.90
20035;DHT22;10178;48.034;9.800;2024-02-21T04:29:55;6.20;99.90
20035;DHT22;10178;48.034;9.800;2024-02-21T04:32:20;6.50;99.90
20035;DHT22;10178;48.034;9.800;2024-02-21T04:34:46;6.60;99.90
20035;DHT22;10178;48.034;9.800;2024-02-21T04:37:12;6.70;99.90
20035;DHT22;10178;48.034;9.800;2024-02-21T04:39:37;6.70;99.90
20035;DHT22;10178;48.034;9.800;2024-02-21T04:42:03;6.80;99.90
20035;DHT22;10178;48.034;9.800;2024-02-21T04:44:28;6.80;99.90
20035;DHT22;10178;48.034;9.800;2024-02-21T04:46:54;6.80;99.90
20035;DHT22;10178;48.034;9.800;2024-02-21T04:49:20;6.40;99.90
20035;DHT22;10178;48.034;9.800;2024-02-21T04:51:45;5.30;99.90
20035;DHT22;10178;48.034;9.800;2024-02-21T04:54:11;4.50;99.90
20035;DHT22;10178;48.034;9.800;2024-02-21T04:56:36;4.70;99.90
20035;DHT22;10178;48.034;9.800;2024-02-21T04:59:02;5.30;99.90
20035;DHT22;10178;48.034;9.800;2024-02-21T05:01:31;5.60;99.90
20035;DHT22;10178;48.034;9.800;2024-02-21T05:03:56;5.50;99.90
20035;DHT22;10178;48.034;9.800;2024-02-21T05:06:22;5.70;99.90
20035;DHT22;10178;48.034;9.800;2024-02-21T05:08:48;5.60;99.90
20035;DHT22;10178;48.034;9.800;2024-02-21T05:11:13;5.80;99.90
20035;DHT22;10178;48.034;9.800;2024-02-21T05:13:39;6.10;99.90
20035;DHT22;10178;48.034;9.800;2024-02-21T05:16:05;6.30;99.90
20035;DHT22;10178;48.034;9.800;2024-02-21T05:18:32;6.40;99.90
20035;DHT22;10178;48.034;9.800;2024-02-21T05:20:59;6.40;99.90
20035;DHT22;10178;48.034;9.800;2024-02-21T05:23:25;6.50;99.90
20035;DHT22;10178;48.034;9.800;2024-02-21T05:25:51;6.40;99.90
20035;DHT22;10178;48.034;9.800;2024-02-21T05:28:16;6.30;99.90
20035;DHT22;10178;48.034;9.800;2024-02-21T05:30:42;6.30;99.90
20035;DHT22;10178;48.034;9.800;2024-02-21T05:33:08;6.10;99.90
20035;DHT22;10178;48.034;9.800;2024-02-21T05:35:34;5.90;99.90
20035;DHT22;10178;48.034;9.800;2024-02-21T05:38:00;6.20;99.90
20035;DHT22;10178;48.034;9.800;2024-02-21T05:40:26;6.30;99.90
20035;DHT22;10178;48.034;9.800;2024-02-21T05:42:51;6.50;99.90
20035;DHT22;10178;48.034;9.800;2024-02-21T05:45:18;6.60;99.90
20035;DHT22;10178;48.034;9.800;2024-02-21T05:47:44;6.40;99.90
20035;DHT22;10178;48.034;9.800;2024-02-21T05:50:10;6.00;99.90
20035;DHT22;10178;48.034;9.800;2024-02-21T05:52:36;5.90;99.90
20035;DHT22;10178;48.034;9.800;2024-02-21T05:55:02;5.80;99.90
20035;DHT22;10178;48.034;9.800;2024-02-21T05:57:27;5.10;99.90
20035;DHT22;10178;48.034;9.800;2024-02-21T05:59:53;5.10;99.90
20035;DHT22;10178;48.034;9.800;2024-02-21T06:02:18;4.60;99.90
20035;DHT22;10178;48.034;9.800;2024-02-21T06:04:45;4.20;99.90
20035;DHT22;10178;48.034;9.800;2024-02-21T06:07:11;4.70;99.90
20035;DHT22;10178;48.034;9.800;2024-02-21T06:09:37;5.30;99.90
20035;DHT22;10178;48.034;9.800;2024-02-21T06:12:03;5.60;99.90
20035;DHT22;10178;48.034;9.800;2024-02-21T06:14:28;5.60;99.90
20035;DHT22;10178;48.034;9.800;2024-02-21T06:16:54;5.20;99.90
20035;DHT22;10178;48.034;9.800;2024-02-21T06:19:20;4.40;99.90
20035;DHT22;10178;48.034;9.800;2024-02-21T06:21:45;4.10;99.90
20035;DHT22;10178;48.034;9.800;2024-02-21T06:24:11;4.50;99.90
20035;DHT22;10178;48.034;9.800;2024-02-21T06:26:38;4.60;99.90
20035;DHT22;10178;48.034;9.800;2024-02-21T06:29:05;4.90;99.90
20035;DHT22;10178;48.034;9.800;2024-02-21T06:31:31;5.20;99.90
20035;DHT22;10178;48.034;9.800;2024-02-21T06:33:57;4.80;99.90
20035;DHT22;10178;48.034;9.800;2024-02-21T06:36:22;4.50;99.90
20035;DHT22;10178;48.034;9.800;2024-02-21T06:38:48;4.30;99.90
20035;DHT22;10178;48.034;9.800;2024-02-21T06:41:17;4.10;99.90
20035;DHT22;10178;48.034;9.800;2024-02-21T06:43:45;4.40;99.90
20035;DHT22;10178;48.034;9.800;2024-02-21T06:46:11;4.90;99.90
20035;DHT22;10178;48.034;9.800;2024-02-21T06:48:37;5.40;99.90
20035;DHT22;10178;48.034;9.800;2024-02-21T06:51:03;5.80;99.90
20035;DHT22;10178;48.034;9.800;2024-02-21T06:53:29;6.00;99.90
20035;DHT22;10178;48.034;9.800;2024-02-21T06:55:55;6.10;99.90
20035;DHT22;10178;48.034;9.800;2024-02-21T06:58:20;6.20;99.90
20035;DHT22;10178;48.034;9.800;2024-02-21T07:00:46;6.20;99.90
20035;DHT22;10178;48.034;9.800;2024-02-21T07:03:11;6.40;99.90
20035;DHT22;10178;48.034;9.800;2024-02-21T07:05:37;6.40;99.90
20035;DHT22;10178;48.034;9.800;2024-02-21T07:08:03;6.50;99.90
20035;DHT22;10178;48.034;9.800;2024-02-21T07:10:29;6.50;99.90
20035;DHT22;10178;48.034;9.800;2024-02-21T07:12:55;6.60;99.90
20035;DHT22;10178;48.034;9.800;2024-02-21T07:15:20;6.50;99.90
20035;DHT22;10178;48.034;9.800;2024-02-21T07:17:46;6.50;99.90
20035;DHT22;10178;48.034;9.800;2024-02-21T07:20:12;6.60;99.90
20035;DHT22;10178;48.034;9.800;2024-02-21T07:22:37;6.60;99.90
20035;DHT22;10178;48.034;9.800;2024-02-21T07:25:04;6.60;99.90
20035;DHT22;10178;48.034;9.800;2024-02-21T07:27:29;6.60;99.90
20035;DHT22;10178;48.034;9.800;2024-02-21T07:29:57;6.60;99.90
20035;DHT22;10178;48.034;9.800;2024-02-21T07:32:22;6.60;99.90
20035;DHT22;10178;48.034;9.800;2024-02-21T07:34:48;5.80;99.90
20035;DHT22;10178;48.034;9.800;2024-02-21T07:37:14;5.50;99.90
20035;DHT22;10178;48.034;9.800;2024-02-21T07:39:44;5.80;99.90
20035;DHT22;10178;48.034;9.800;2024-02-21T07:42:09;6.00;99.90
20035;DHT22;10178;48.034;9.800;2024-02-21T07:44:35;6.20;99.90
20035;DHT22;10178;48.034;9.800;2024-02-21T07:47:01;6.00;99.90
20035;DHT22;10178;48.034;9.800;2024-02-21T07:49:26;5.40;99.90
20035;DHT22;10178;48.034;9.800;2024-02-21T07:51:52;5.50;99.90
20035;DHT22;10178;48.034;9.800;2024-02-21T07:54:18;5.80;99.90
20035;DHT22;10178;48.034;9.800;2024-02-21T07:56:43;6.20;99.90
20035;DHT22;10178;48.034;9.800;2024-02-21T07:59:09;6.30;99.90
20035;DHT22;10178;48.034;9.800;2024-02-21T08:01:35;6.40;99.90
20035;DHT22;10178;48.034;9.800;2024-02-21T08:04:00;6.50;99.90
20035;DHT22;10178;48.034;9.800;2024-02-21T08:06:26;6.60;99.90
20035;DHT22;10178;48.034;9.800;2024-02-21T08:08:51;6.50;99.90
20035;DHT22;10178;48.034;9.800;2024-02-21T08:11:17;6.70;99.90
20035;DHT22;10178;48.034;9.800;2024-02-21T08:13:43;6.90;99.90
20035;DHT22;10178;48.034;9.800;2024-02-21T08:16:08;6.90;99.90
20035;DHT22;10178;48.034;9.800;2024-02-21T08:18:34;7.10;99.90
20035;DHT22;10178;48.034;9.800;2024-02-21T08:21:03;7.50;99.90
20035;DHT22;10178;48.034;9.800;2024-02-21T08:23:29;7.70;99.90
20035;DHT22;10178;48.034;9.800;2024-02-21T08:25:55;7.90;99.90
20035;DHT22;10178;48.034;9.800;2024-02-21T08:28:20;8.00;99.90
20035;DHT22;10178;48.034;9.800;2024-02-21T08:30:46;7.70;99.90
20035;DHT22;10178;48.034;9.800;2024-02-21T08:33:15;7.50;99.90
20035;DHT22;10178;48.034;9.800;2024-02-21T08:35:42;7.20;99.90
20035;DHT22;10178;48.034;9.800;2024-02-21T08:38:07;7.00;99.90
20035;DHT22;10178;48.034;9.800;2024-02-21T08:40:33;7.00;99.90
20035;DHT22;10178;48.034;9.800;2024-02-21T08:43:00;7.30;99.90
20035;DHT22;10178;48.034;9.800;2024-02-21T08:45:26;7.00;99.90
20035;DHT22;10178;48.034;9.800;2024-02-21T08:47:52;7.10;99.90
20035;DHT22;10178;48.034;9.800;2024-02-21T08:50:17;7.10;99.90
20035;DHT22;10178;48.034;9.800;2024-02-21T08:52:43;7.20;99.90
20035;DHT22;10178;48.034;9.800;2024-02-21T08:55:08;7.30;99.90
20035;DHT22;10178;48.034;9.800;2024-02-21T08:57:34;7.40;99.90
20035;DHT22;10178;48.034;9.800;2024-02-21T09:00:04;7.40;99.90
20035;DHT22;10178;48.034;9.800;2024-02-21T09:02:36;7.50;99.90
20035;DHT22;10178;48.034;9.800;2024-02-21T09:05:03;7.40;99.90
20035;DHT22;10178;48.034;9.800;2024-02-21T09:07:30;7.50;99.90
20035;DHT22;10178;48.034;9.800;2024-02-21T09:09:56;7.60;99.90
20035;DHT22;10178;48.034;9.800;2024-02-21T09:12:22;7.50;99.90
20035;DHT22;10178;48.034;9.800;2024-02-21T09:14:47;7.50;99.90
20035;DHT22;10178;48.034;9.800;2024-02-21T09:17:16;7.50;99.90
20035;DHT22;10178;48.034;9.800;2024-02-21T09:19:43;7.50;99.90
20035;DHT22;10178;48.034;9.800;2024-02-21T09:22:09;7.30;99.90
20035;DHT22;10178;48.034;9.800;2024-02-21T09:24:34;7.40;99.90
20035;DHT22;10178;48.034;9.800;2024-02-21T09:27:00;7.40;99.90
20035;DHT22;10178;48.034;9.800;2024-02-21T09:29:26;7.40;99.90
20035;DHT22;10178;48.034;9.800;2024-02-21T09:31:51;7.40;99.90
20035;DHT22;10178;48.034;9.800;2024-02-21T09:34:17;7.40;99.90
20035;DHT22;10178;48.034;9.800;2024-02-21T09:36:44;7.40;99.90
20035;DHT22;10178;48.034;9.800;2024-02-21T09:39:10;7.50;99.90
20035;DHT22;10178;48.034;9.800;2024-02-21T09:41:45;7.50;99.90
20035;DHT22;10178;48.034;9.800;2024-02-21T09:44:13;7.60;99.90
20035;DHT22;10178;48.034;9.800;2024-02-21T09:46:55;7.70;99.90
20035;DHT22;10178;48.034;9.800;2024-02-21T09:49:35;7.80;99.90
20035;DHT22;10178;48.034;9.800;2024-02-21T09:52:07;7.80;99.90
20035;DHT22;10178;48.034;9.800;2024-02-21T09:54:33;8.00;99.90
20035;DHT22;10178;48.034;9.800;2024-02-21T09:57:02;8.00;99.90
20035;DHT22;10178;48.034;9.800;2024-02-21T09:59:30;8.00;99.90
20035;DHT22;10178;48.034;9.800;2024-02-21T10:01:56;8.00;99.90
20035;DHT22;10178;48.034;9.800;2024-02-21T10:04:22;8.10;99.90
20035;DHT22;10178;48.034;9.800;2024-02-21T10:06:47;8.00;99.90
20035;DHT22;10178;48.034;9.800;2024-02-21T10:09:23;8.10;99.90
20035;DHT22;10178;48.034;9.800;2024-02-21T10:11:49;8.10;99.90
20035;DHT22;10178;48.034;9.800;2024-02-21T10:14:16;8.10;99.90
20035;DHT22;10178;48.034;9.800;2024-02-21T10:16:42;8.20;99.90
20035;DHT22;10178;48.034;9.800;2024-02-21T10:19:17;8.30;99.90
20035;DHT22;10178;48.034;9.800;2024-02-21T10:21:42;8.40;99.90
20035;DHT22;10178;48.034;9.800;2024-02-21T10:24:08;8.40;99.90
20035;DHT22;10178;48.034;9.800;2024-02-21T10:26:35;8.40;99.90
20035;DHT22;10178;48.034;9.800;2024-02-21T10:29:02;8.60;99.90
20035;DHT22;10178;48.034;9.800;2024-02-21T10:31:28;8.60;99.90
20035;DHT22;10178;48.034;9.800;2024-02-21T10:34:02;8.60;99.90
20035;DHT22;10178;48.034;9.800;2024-02-21T10:36:29;8.80;99.90
20035;DHT22;10178;48.034;9.800;2024-02-21T10:38:55;8.90;99.90
20035;DHT22;10178;48.034;9.800;2024-02-21T10:41:22;9.00;99.90
20035;DHT22;10178;48.034;9.800;2024-02-21T10:43:53;9.10;99.90
20035;DHT22;10178;48.034;9.800;2024-02-21T10:46:21;9.20;99.90
20035;DHT22;10178;48.034;9.800;2024-02-21T10:48:48;9.20;99.90
20035;DHT22;10178;48.034;9.800;2024-02-21T10:51:25;9.20;99.90
20035;DHT22;10178;48.034;9.800;2024-02-21T10:56:32;9.20;99.90
20035;DHT22;10178;48.034;9.800;2024-02-21T10:59:04;9.30;99.90
20035;DHT22;10178;48.034;9.800;2024-02-21T11:01:30;9.40;99.90
20035;DHT22;10178;48.034;9.800;2024-02-21T11:04:06;9.60;99.90
20035;DHT22;10178;48.034;9.800;2024-02-21T11:06:34;9.80;99.90
20035;DHT22;10178;48.034;9.800;2024-02-21T11:09:05;9.80;99.90
20035;DHT22;10178;48.034;9.800;2024-02-21T11:11:34;9.80;99.90
20035;DHT22;10178;48.034;9.800;2024-02-21T11:14:05;9.90;99.90
20035;DHT22;10178;48.034;9.800;2024-02-21T11:16:35;9.90;99.90
20035;DHT22;10178;48.034;9.800;2024-02-21T11:21:37;10.10;99.90
20035;DHT22;10178;48.034;9.800;2024-02-21T11:24:05;9.90;99.90
20035;DHT22;10178;48.034;9.800;2024-02-21T11:26:32;9.90;99.90
20035;DHT22;10178;48.034;9.800;2024-02-21T11:29:01;9.90;99.90
20035;DHT22;10178;48.034;9.800;2024-02-21T11:31:44;10.00;99.90
20035;DHT22;10178;48.034;9.800;2024-02-21T11:34:11;10.00;99.90
20035;DHT22;10178;48.034;9.800;2024-02-21T11:36:48;9.90;99.90
20035;DHT22;10178;48.034;9.800;2024-02-21T11:39:23;9.70;99.90
20035;DHT22;10178;48.034;9.800;2024-02-21T11:42:06;9.50;99.90
20035;DHT22;10178;48.034;9.800;2024-02-21T11:44:34;9.50;99.90
20035;DHT22;10178;48.034;9.800;2024-02-21T11:46:59;9.60;99.90
20035;DHT22;10178;48.034;9.800;2024-02-21T11:49:26;9.60;99.90
20035;DHT22;10178;48.034;9.800;2024-02-21T11:52:02;9.60;99.90
20035;DHT22;10178;48.034;9.800;2024-02-21T11:54:30;9.60;99.90
20035;DHT22;10178;48.034;9.800;2024-02-21T11:56:56;9.50;99.90
20035;DHT22;10178;48.034;9.800;2024-02-21T11:59:21;9.60;99.90
20035;DHT22;10178;48.034;9.800;2024-02-21T12:01:48;9.70;99.90
20035;DHT22;10178;48.034;9.800;2024-02-21T12:04:14;9.60;99.90
20035;DHT22;10178;48.034;9.800;2024-02-21T12:06:43;9.60;99.90
20035;DHT22;10178;48.034;9.800;2024-02-21T12:09:08;9.60;99.90
20035;DHT22;10178;48.034;9.800;2024-02-21T12:11:34;9.60;99.90
20035;DHT22;10178;48.034;9.800;2024-02-21T12:16:32;9.60;99.90
20035;DHT22;10178;48.034;9.800;2024-02-21T12:19:02;9.60;99.90
20035;DHT22;10178;48.034;9.800;2024-02-21T12:21:33;9.70;99.90
20035;DHT22;10178;48.034;9.800;2024-02-21T12:24:21;9.70;99.90
20035;DHT22;10178;48.034;9.800;2024-02-21T12:26:48;9.70;99.90
20035;DHT22;10178;48.034;9.800;2024-02-21T12:29:14;9.80;99.90
20035;DHT22;10178;48.034;9.800;2024-02-21T12:31:40;9.90;99.90
20035;DHT22;10178;48.034;9.800;2024-02-21T12:34:06;10.00;99.90
20035;DHT22;10178;48.034;9.800;2024-02-21T12:36:32;10.10;99.90
20035;DHT22;10178;48.034;9.800;2024-02-21T12:38:59;10.20;99.90
20035;DHT22;10178;48.034;9.800;2024-02-21T12:41:24;10.30;99.90
20035;DHT22;10178;48.034;9.800;2024-02-21T12:43:53;10.30;99.90
20035;DHT22;10178;48.034;9.800;2024-02-21T12:46:19;10.40;99.90
20035;DHT22;10178;48.034;9.800;2024-02-21T12:48:44;10.40;99.90
20035;DHT22;10178;48.034;9.800;2024-02-21T12:51:10;10.40;99.90
20035;DHT22;10178;48.034;9.800;2024-02-21T12:53:36;10.50;99.90
20035;DHT22;10178;48.034;9.800;2024-02-21T12:56:01;10.60;99.90
20035;DHT22;10178;48.034;9.800;2024-02-21T12:58:27;10.50;99.90
20035;DHT22;10178;48.034;9.800;2024-02-21T13:00:54;10.40;99.90
20035;DHT22;10178;48.034;9.800;2024-02-21T13:03:19;10.50;99.90
20035;DHT22;10178;48.034;9.800;2024-02-21T13:05:46;10.60;99.90
20035;DHT22;10178;48.034;9.800;2024-02-21T13:08:13;10.60;99.90
20035;DHT22;10178;48.034;9.800;2024-02-21T13:10:39;10.50;99.90
20035;DHT22;10178;48.034;9.800;2024-02-21T13:13:04;10.40;99.90
20035;DHT22;10178;48.034;9.800;2024-02-21T13:15:30;10.40;99.90
20035;DHT22;10178;48.034;9.800;2024-02-21T13:17:57;10.40;99.90
20035;DHT22;10178;48.034;9.800;2024-02-21T13:20:25;10.20;99.90
20035;DHT22;10178;48.034;9.800;2024-02-21T13:22:52;10.20;99.90
20035;DHT22;10178;48.034;9.800;2024-02-21T13:25:17;10.30;99.90
20035;DHT22;10178;48.034;9.800;2024-02-21T13:27:47;10.30;99.90
20035;DHT22;10178;48.034;9.800;2024-02-21T13:30:13;10.40;99.90
20035;DHT22;10178;48.034;9.800;2024-02-21T13:32:41;10.40;99.90
20035;DHT22;10178;48.034;9.800;2024-02-21T13:35:08;10.40;99.90
20035;DHT22;10178;48.034;9.800;2024-02-21T13:37:34;10.30;99.90
20035;DHT22;10178;48.034;9.800;2024-02-21T13:40:00;10.30;99.90
20035;DHT22;10178;48.034;9.800;2024-02-21T13:42:25;10.10;99.90
20035;DHT22;10178;48.034;9.800;2024-02-21T13:44:53;10.10;99.90
20035;DHT22;10178;48.034;9.800;2024-02-21T13:47:18;10.10;99.90
20035;DHT22;10178;48.034;9.800;2024-02-21T13:49:44;10.10;99.90
20035;DHT22;10178;48.034;9.800;2024-02-21T13:52:10;10.10;99.90
20035;DHT22;10178;48.034;9.800;2024-02-21T13:54:35;10.00;99.90
20035;DHT22;10178;48.034;9.800;2024-02-21T13:57:01;10.00;99.90
20035;DHT22;10178;48.034;9.800;2024-02-21T13:59:28;10.00;99.90
20035;DHT22;10178;48.034;9.800;2024-02-21T14:01:54;10.10;99.90
20035;DHT22;10178;48.034;9.800;2024-02-21T14:04:19;10.10;99.90
20035;DHT22;10178;48.034;9.800;2024-02-21T14:06:45;10.00;99.90
20035;DHT22;10178;48.034;9.800;2024-02-21T14:09:14;10.00;99.90
20035;DHT22;10178;48.034;9.800;2024-02-21T14:11:40;10.10;99.90
20035;DHT22;10178;48.034;9.800;2024-02-21T14:14:06;10.10;99.90
20035;DHT22;10178;48.034;9.800;2024-02-21T14:16:33;10.10;99.90
20035;DHT22;10178;48.034;9.800;2024-02-21T14:18:59;10.10;99.90
20035;DHT22;10178;48.034;9.800;2024-02-21T14:21:24;10.10;99.90
20035;DHT22;10178;48.034;9.800;2024-02-21T14:23:51;10.00;99.90
20035;DHT22;10178;48.034;9.800;2024-02-21T14:26:18;10.00;99.90
20035;DHT22;10178;48.034;9.800;2024-02-21T14:28:43;10.00;99.90
20035;DHT22;10178;48.034;9.800;2024-02-21T14:31:09;10.00;99.90
20035;DHT22;10178;48.034;9.800;2024-02-21T14:33:35;10.00;99.90
20035;DHT22;10178;48.034;9.800;2024-02-21T14:36:01;10.00;99.90
20035;DHT22;10178;48.034;9.800;2024-02-21T14:38:28;10.10;99.90
20035;DHT22;10178;48.034;9.800;2024-02-21T14:40:53;10.20;99.90
20035;DHT22;10178;48.034;9.800;2024-02-21T14:43:19;10.20;99.90
20035;DHT22;10178;48.034;9.800;2024-02-21T14:45:47;10.20;99.90
20035;DHT22;10178;48.034;9.800;2024-02-21T14:48:13;10.30;99.90
20035;DHT22;10178;48.034;9.800;2024-02-21T14:50:39;10.30;99.90
20035;DHT22;10178;48.034;9.800;2024-02-21T14:53:05;10.40;99.90
20035;DHT22;10178;48.034;9.800;2024-02-21T14:55:30;10.50;99.90
20035;DHT22;10178;48.034;9.800;2024-02-21T14:57:56;10.60;99.90
20035;DHT22;10178;48.034;9.800;2024-02-21T15:00:22;10.70;99.90
20035;DHT22;10178;48.034;9.800;2024-02-21T15:02:58;10.80;99.90
20035;DHT22;10178;48.034;9.800;2024-02-21T15:05:24;10.60;99.90
20035;DHT22;10178;48.034;9.800;2024-02-21T15:07:50;10.40;99.90
20035;DHT22;10178;48.034;9.800;2024-02-21T15:10:16;10.40;99.90
20035;DHT22;10178;48.034;9.800;2024-02-21T15:12:45;10.60;99.90
20035;DHT22;10178;48.034;9.800;2024-02-21T15:15:10;10.70;99.90
20035;DHT22;10178;48.034;9.800;2024-02-21T15:17:36;10.70;99.90
20035;DHT22;10178;48.034;9.800;2024-02-21T15:20:02;10.50;99.90
20035;DHT22;10178;48.034;9.800;2024-02-21T15:22:30;10.40;99.90
20035;DHT22;10178;48.034;9.800;2024-02-21T15:24:55;10.50;99.90
20035;DHT22;10178;48.034;9.800;2024-02-21T15:27:21;10.60;99.90
20035;DHT22;10178;48.034;9.800;2024-02-21T15:29:47;10.60;99.90
20035;DHT22;10178;48.034;9.800;2024-02-21T15:32:12;10.50;99.90
20035;DHT22;10178;48.034;9.800;2024-02-21T15:34:38;10.50;99.90
20035;DHT22;10178;48.034;9.800;2024-02-21T15:37:03;10.40;99.90
20035;DHT22;10178;48.034;9.800;2024-02-21T15:39:29;10.40;99.90
20035;DHT22;10178;48.034;9.800;2024-02-21T15:41:55;10.30;99.90
20035;DHT22;10178;48.034;9.800;2024-02-21T15:44:24;10.30;99.90
20035;DHT22;10178;48.034;9.800;2024-02-21T15:46:50;10.30;99.90